createdAt,value
2023-05-15T00:01:04.498Z,10.53
2023-05-15T00:03:36.325Z,10.51
2023-05-15T00:06:08.009Z,10.50
2023-05-15T00:08:39.832Z,10.29
2023-05-15T00:11:11.565Z,10.37
2023-05-15T00:13:43.105Z,10.18
2023-05-15T00:16:14.667Z,10.37
2023-05-15T00:18:46.296Z,10.41
2023-05-15T00:21:17.906Z,10.47
2023-05-15T00:23:53.976Z,10.44
2023-05-15T00:26:25.581Z,10.42
2023-05-15T00:28:57.896Z,10.27
2023-05-15T00:31:29.375Z,10.26
2023-05-15T00:34:01.096Z,10.36
2023-05-15T00:36:32.846Z,10.20
2023-05-15T00:39:04.574Z,10.10
2023-05-15T00:41:36.878Z,10.16
2023-05-15T00:44:09.928Z,10.08
2023-05-15T00:46:43.264Z,9.99
2023-05-15T00:49:16.675Z,10.04
2023-05-15T00:51:48.198Z,10.12
2023-05-15T00:54:20.060Z,10.11
2023-05-15T00:56:52.885Z,10.19
2023-05-15T00:59:27.760Z,10.17
2023-05-15T01:01:59.382Z,10.26
2023-05-15T01:04:30.951Z,10.31
2023-05-15T01:07:02.425Z,10.28
2023-05-15T01:09:35.747Z,10.23
2023-05-15T01:12:08.136Z,10.27
2023-05-15T01:14:39.766Z,10.23
2023-05-15T01:17:11.550Z,10.21
2023-05-15T01:19:44.521Z,10.25
2023-05-15T01:22:30.302Z,10.23
2023-05-15T01:25:23.397Z,10.23
2023-05-15T01:27:58.817Z,10.20
2023-05-15T01:30:36.159Z,10.26
2023-05-15T01:33:12.744Z,10.31
2023-05-15T01:35:50.428Z,10.21
2023-05-15T01:38:32.257Z,10.13
2023-05-15T01:41:15.909Z,10.28
2023-05-15T01:43:52.042Z,10.28
2023-05-15T01:46:24.585Z,10.34
2023-05-15T01:48:58.155Z,10.34
2023-05-15T01:51:31.319Z,10.31
2023-05-15T01:54:05.251Z,10.35
2023-05-15T01:56:37.936Z,10.34
2023-05-15T01:59:09.639Z,10.41
2023-05-15T02:01:42.452Z,10.47
2023-05-15T02:04:15.389Z,10.47
2023-05-15T02:06:47.667Z,10.49
2023-05-15T02:09:20.829Z,10.39
2023-05-15T02:11:53.134Z,10.36
2023-05-15T02:14:24.826Z,10.28
2023-05-15T02:16:56.442Z,10.32
2023-05-15T02:19:28.021Z,10.30
2023-05-15T02:21:59.577Z,10.29
2023-05-15T02:24:31.104Z,10.28
2023-05-15T02:27:04.694Z,10.19
2023-05-15T02:30:10.202Z,10.25
2023-05-15T02:33:14.239Z,10.26
2023-05-15T02:36:05.216Z,10.29
2023-05-15T02:38:52.906Z,10.17
2023-05-15T02:41:25.005Z,10.19
2023-05-15T02:43:56.900Z,10.15
2023-05-15T02:46:29.927Z,10.03
2023-05-15T02:49:02.124Z,10.07
2023-05-15T02:51:33.651Z,10.03
2023-05-15T02:54:09.552Z,10.08
2023-05-15T02:56:41.067Z,10.11
2023-05-15T02:59:18.585Z,10.09
2023-05-15T03:01:50.648Z,10.11
2023-05-15T03:04:22.561Z,10.17
2023-05-15T03:06:54.119Z,10.21
2023-05-15T03:09:26.026Z,10.20
2023-05-15T03:11:57.607Z,10.17
2023-05-15T03:14:29.132Z,10.15
2023-05-15T03:17:00.636Z,10.18
2023-05-15T03:19:32.186Z,10.13
2023-05-15T03:22:03.847Z,10.19
2023-05-15T03:24:35.377Z,10.24
2023-05-15T03:27:06.877Z,10.28
2023-05-15T03:29:38.716Z,10.26
2023-05-15T03:32:10.299Z,10.25
2023-05-15T03:34:41.924Z,10.17
2023-05-15T03:37:13.547Z,10.16
2023-05-15T03:39:45.032Z,10.12
2023-05-15T03:42:22.488Z,10.00
2023-05-15T03:44:55.090Z,9.89
2023-05-15T03:47:26.727Z,9.90
2023-05-15T03:49:58.517Z,9.89
2023-05-15T03:52:30.125Z,9.97
2023-05-15T03:55:01.786Z,10.00
2023-05-15T03:57:35.520Z,10.07
2023-05-15T04:00:10.842Z,10.00
2023-05-15T04:02:42.645Z,10.03
2023-05-15T04:05:14.359Z,10.04
2023-05-15T04:07:45.987Z,10.06
2023-05-15T04:10:17.580Z,10.04
2023-05-15T04:12:49.065Z,10.08
2023-05-15T04:15:23.023Z,10.05
2023-05-15T04:17:55.198Z,10.08
2023-05-15T04:20:26.854Z,10.07
2023-05-15T04:22:58.423Z,10.06
2023-05-15T04:25:29.917Z,10.03
2023-05-15T04:28:01.584Z,10.13
2023-05-15T04:30:33.117Z,10.18
2023-05-15T04:33:04.740Z,10.18
2023-05-15T04:35:36.277Z,10.20
2023-05-15T04:38:09.420Z,10.19
2023-05-15T04:40:41.022Z,10.24
2023-05-15T04:43:13.460Z,10.27
2023-05-15T04:45:45.310Z,10.36
2023-05-15T04:48:19.223Z,10.38
2023-05-15T04:50:51.882Z,10.45
2023-05-15T04:53:23.412Z,10.39
2023-05-15T04:55:54.976Z,10.44
2023-05-15T04:58:26.608Z,10.40
2023-05-15T05:00:58.228Z,10.41
2023-05-15T05:03:29.938Z,10.39
2023-05-15T05:06:01.482Z,10.35
2023-05-15T05:08:33.029Z,10.30
2023-05-15T05:11:05.642Z,10.27
2023-05-15T05:13:37.297Z,10.27
2023-05-15T05:16:08.951Z,10.35
2023-05-15T05:18:40.563Z,10.21
2023-05-15T05:21:12.036Z,10.18
2023-05-15T05:23:43.565Z,10.25
2023-05-15T05:26:15.311Z,10.32
2023-05-15T05:28:47.656Z,10.33
2023-05-15T05:31:19.575Z,10.34
2023-05-15T05:33:52.615Z,10.42
2023-05-15T05:36:25.427Z,10.38
2023-05-15T05:38:56.967Z,10.44
2023-05-15T05:41:28.434Z,10.40
2023-05-15T05:43:59.871Z,10.52
2023-05-15T05:46:31.461Z,10.50
2023-05-15T05:49:03.315Z,10.49
2023-05-15T05:51:37.032Z,10.47
2023-05-15T05:54:08.798Z,10.58
2023-05-15T05:56:41.298Z,10.64
2023-05-15T05:59:12.884Z,10.66
2023-05-15T06:01:44.576Z,10.65
2023-05-15T06:04:18.183Z,10.80
2023-05-15T06:06:50.323Z,10.84
2023-05-15T06:09:21.957Z,10.83
2023-05-15T06:11:53.520Z,10.89
2023-05-15T06:14:25.146Z,11.00
2023-05-15T06:16:56.677Z,11.11
2023-05-15T06:19:29.100Z,11.17
2023-05-15T06:22:01.693Z,11.17
2023-05-15T06:24:33.413Z,11.31
2023-05-15T06:27:05.158Z,11.45
2023-05-15T06:29:36.773Z,11.37
2023-05-15T06:32:08.552Z,11.46
2023-05-15T06:34:40.031Z,11.35
2023-05-15T06:37:12.404Z,11.44
2023-05-15T06:39:43.903Z,11.34
2023-05-15T06:42:15.537Z,11.49
2023-05-15T06:44:47.683Z,11.49
2023-05-15T06:47:19.547Z,11.47
2023-05-15T06:49:51.049Z,11.41
2023-05-15T06:52:22.569Z,11.53
2023-05-15T06:54:54.205Z,11.44
2023-05-15T06:57:26.325Z,11.59
2023-05-15T06:59:57.862Z,11.72
2023-05-15T07:02:29.346Z,11.73
2023-05-15T07:05:00.899Z,11.75
2023-05-15T07:07:32.512Z,11.87
2023-05-15T07:10:04.702Z,11.83
2023-05-15T07:12:36.254Z,11.68
2023-05-15T07:15:08.120Z,11.62
2023-05-15T07:17:39.778Z,11.66
2023-05-15T07:20:11.645Z,11.69
2023-05-15T07:22:54.965Z,11.84
2023-05-15T07:25:27.285Z,12.00
2023-05-15T07:27:58.973Z,12.16
2023-05-15T07:30:30.536Z,12.08
2023-05-15T07:33:02.162Z,12.24
2023-05-15T07:35:33.724Z,12.22
2023-05-15T07:38:05.293Z,12.38
2023-05-15T07:40:37.006Z,12.67
2023-05-15T07:43:08.816Z,12.92
2023-05-15T07:45:40.437Z,12.71
2023-05-15T07:48:15.653Z,12.96
2023-05-15T07:50:47.865Z,13.37
2023-05-15T07:53:19.674Z,13.54
2023-05-15T07:55:51.200Z,13.51
2023-05-15T07:58:23.438Z,13.85
2023-05-15T08:00:54.863Z,13.63
2023-05-15T08:03:26.516Z,13.68
2023-05-15T08:05:58.181Z,13.59
2023-05-15T08:08:29.793Z,13.66
2023-05-15T08:11:01.400Z,13.52
2023-05-15T08:13:33.162Z,13.21
2023-05-15T08:16:05.583Z,13.32
2023-05-15T08:18:37.362Z,13.31
2023-05-15T08:21:09.073Z,13.40
2023-05-15T08:23:40.717Z,13.14
2023-05-15T08:26:12.352Z,13.21
2023-05-15T08:28:44.864Z,13.38
2023-05-15T08:31:16.560Z,13.41
2023-05-15T08:33:48.138Z,13.47
2023-05-15T08:36:19.834Z,13.37
2023-05-15T08:38:51.825Z,13.52
2023-05-15T08:41:40.583Z,13.65
2023-05-15T08:44:13.273Z,13.50
2023-05-15T08:46:45.169Z,13.75
2023-05-15T08:49:33.114Z,13.68
2023-05-15T08:52:05.556Z,14.15
2023-05-15T08:54:37.681Z,14.42
2023-05-15T08:57:10.571Z,14.53
2023-05-15T08:59:42.637Z,14.40
2023-05-15T09:02:15.724Z,14.26
2023-05-15T09:04:47.637Z,14.58
2023-05-15T09:07:20.445Z,14.32
2023-05-15T09:09:53.271Z,14.51
2023-05-15T09:12:27.118Z,14.40
2023-05-15T09:15:11.193Z,14.49
2023-05-15T09:17:43.287Z,14.55
2023-05-15T09:20:28.105Z,14.54
2023-05-15T09:23:01.809Z,14.81
2023-05-15T09:25:39.804Z,14.66
2023-05-15T09:28:32.037Z,14.95
2023-05-15T09:31:05.730Z,15.03
2023-05-15T09:33:39.599Z,15.41
2023-05-15T09:36:11.573Z,15.49
2023-05-15T09:38:43.633Z,15.53
2023-05-15T09:41:15.254Z,15.49
2023-05-15T09:43:46.782Z,15.71
2023-05-15T09:46:18.575Z,15.53
2023-05-15T09:48:54.507Z,15.84
2023-05-15T09:51:27.769Z,15.80
2023-05-15T09:53:59.431Z,15.43
2023-05-15T09:56:32.775Z,15.52
2023-05-15T09:59:04.319Z,15.40
2023-05-15T10:01:36.639Z,15.39
2023-05-15T10:04:08.673Z,15.34
2023-05-15T10:06:52.624Z,15.39
2023-05-15T10:09:31.025Z,15.29
2023-05-15T10:12:04.167Z,14.93
2023-05-15T10:14:35.699Z,15.29
2023-05-15T10:17:08.756Z,15.68
2023-05-15T10:19:56.599Z,15.96
2023-05-15T10:22:30.874Z,16.08
2023-05-15T10:25:28.965Z,15.90
2023-05-15T10:28:01.263Z,15.98
2023-05-15T10:30:33.295Z,15.94
2023-05-15T10:33:06.872Z,15.80
2023-05-15T10:35:40.803Z,15.18
2023-05-15T10:38:13.610Z,15.24
2023-05-15T10:40:45.652Z,15.19
2023-05-15T10:43:19.077Z,15.07
2023-05-15T10:45:53.158Z,15.41
2023-05-15T10:48:26.165Z,15.47
2023-05-15T10:51:01.334Z,15.79
2023-05-15T10:53:34.133Z,16.00
2023-05-15T10:56:06.037Z,16.23
2023-05-15T10:58:37.656Z,15.84
2023-05-15T11:01:28.571Z,16.00
2023-05-15T11:04:13.704Z,16.12
2023-05-15T11:06:47.791Z,16.39
2023-05-15T11:09:27.458Z,16.57
2023-05-15T11:12:21.032Z,16.68
2023-05-15T11:14:52.508Z,16.57
2023-05-15T11:17:24.423Z,16.70
2023-05-15T11:19:57.903Z,16.80
2023-05-15T11:22:36.129Z,16.47
2023-05-15T11:25:14.560Z,16.48
2023-05-15T11:27:46.550Z,16.16
2023-05-15T11:30:22.528Z,16.33
2023-05-15T11:33:00.157Z,16.30
2023-05-15T11:35:47.944Z,16.49
2023-05-15T11:38:25.017Z,16.60
2023-05-15T11:41:00.385Z,16.53
2023-05-15T11:43:33.629Z,16.36
2023-05-15T11:46:08.969Z,16.30
2023-05-15T11:48:42.528Z,16.68
2023-05-15T11:51:25.044Z,16.90
2023-05-15T11:53:57.077Z,17.01
2023-05-15T11:56:30.092Z,16.78
2023-05-15T11:59:02.405Z,16.69
2023-05-15T12:01:47.183Z,16.65
2023-05-15T12:04:19.661Z,16.53
2023-05-15T12:06:51.621Z,16.33
2023-05-15T12:09:27.313Z,16.17
2023-05-15T12:11:58.936Z,15.92
2023-05-15T12:14:31.478Z,15.33
2023-05-15T12:17:04.393Z,14.92
2023-05-15T12:19:38.208Z,14.24
2023-05-15T12:22:09.763Z,14.08
2023-05-15T12:24:42.835Z,13.60
2023-05-15T12:27:14.977Z,13.47
2023-05-15T12:29:46.563Z,13.05
2023-05-15T12:32:18.330Z,12.97
2023-05-15T12:34:50.119Z,13.05
2023-05-15T12:37:21.723Z,13.11
2023-05-15T12:39:54.918Z,13.17
2023-05-15T12:42:26.694Z,13.29
2023-05-15T12:44:58.272Z,13.46
2023-05-15T12:47:30.800Z,13.63
2023-05-15T12:50:02.800Z,13.80
2023-05-15T12:52:34.397Z,13.98
2023-05-15T12:55:06.189Z,14.21
2023-05-15T12:57:38.256Z,14.51
2023-05-15T13:00:14.422Z,14.87
2023-05-15T13:02:46.500Z,15.20
2023-05-15T13:05:18.445Z,15.42
2023-05-15T13:07:51.880Z,15.98
2023-05-15T13:10:24.726Z,16.26
2023-05-15T13:12:57.823Z,16.22
2023-05-15T13:15:39.366Z,16.10
2023-05-15T13:18:16.426Z,15.99
2023-05-15T13:20:51.791Z,15.73
2023-05-15T13:23:25.563Z,15.27
2023-05-15T13:25:57.494Z,15.10
2023-05-15T13:28:30.410Z,14.61
2023-05-15T13:31:07.946Z,14.58
2023-05-15T13:33:39.577Z,14.55
2023-05-15T13:36:16.632Z,14.56
2023-05-15T13:38:48.187Z,14.55
2023-05-15T13:41:19.999Z,14.58
2023-05-15T13:43:51.568Z,14.76
2023-05-15T13:46:24.218Z,15.16
2023-05-15T13:48:55.863Z,15.55
2023-05-15T13:51:30.861Z,16.00
2023-05-15T13:54:02.671Z,16.15
2023-05-15T13:56:35.317Z,16.09
2023-05-15T13:59:07.877Z,16.09
2023-05-15T14:01:41.724Z,15.98
2023-05-15T14:04:14.139Z,15.71
2023-05-15T14:06:46.309Z,15.51
2023-05-15T14:09:17.813Z,15.35
2023-05-15T14:11:49.303Z,15.21
2023-05-15T14:14:22.322Z,15.04
2023-05-15T14:16:54.607Z,14.89
2023-05-15T14:19:27.289Z,14.73
2023-05-15T14:21:59.672Z,14.42
2023-05-15T14:24:32.286Z,14.06
2023-05-15T14:27:04.850Z,13.47
2023-05-15T14:29:38.140Z,13.37
2023-05-15T14:32:12.285Z,13.12
2023-05-15T14:34:46.939Z,13.09
2023-05-15T14:37:20.626Z,12.98
2023-05-15T14:39:53.112Z,12.88
2023-05-15T14:42:35.397Z,12.81
2023-05-15T14:45:07.647Z,12.75
2023-05-15T14:47:40.497Z,12.68
2023-05-15T14:50:12.103Z,12.57
2023-05-15T14:52:46.478Z,12.66
2023-05-15T14:55:24.301Z,12.62
2023-05-15T14:57:59.249Z,12.61
2023-05-15T15:00:30.928Z,12.73
2023-05-15T15:03:04.007Z,12.85
2023-05-15T15:05:37.025Z,12.93
2023-05-15T15:08:10.369Z,13.07
2023-05-15T15:10:43.776Z,13.08
2023-05-15T15:13:17.000Z,13.14
2023-05-15T15:15:53.801Z,13.17
2023-05-15T15:18:28.005Z,13.19
2023-05-15T15:21:07.662Z,13.11
2023-05-15T15:23:39.813Z,13.20
2023-05-15T15:26:11.693Z,13.28
2023-05-15T15:28:43.287Z,13.38
2023-05-15T15:31:17.040Z,13.48
2023-05-15T15:33:48.592Z,13.52
2023-05-15T15:36:21.482Z,13.56
2023-05-15T15:38:57.961Z,13.60
2023-05-15T15:41:32.498Z,13.66
2023-05-15T15:44:04.813Z,13.69
2023-05-15T15:46:36.239Z,13.79
2023-05-15T15:49:08.159Z,13.97
2023-05-15T15:51:43.392Z,14.21
2023-05-15T15:54:15.109Z,14.29
2023-05-15T15:56:48.403Z,14.39
2023-05-15T15:59:20.495Z,14.44
2023-05-15T16:01:53.549Z,14.44
2023-05-15T16:04:25.085Z,14.54
2023-05-15T16:06:56.787Z,14.63
2023-05-15T16:09:29.275Z,14.72
2023-05-15T16:12:01.849Z,14.63
2023-05-15T16:14:33.429Z,14.64
2023-05-15T16:17:05.025Z,14.51
2023-05-15T16:19:36.562Z,14.46
2023-05-15T16:22:08.196Z,14.38
2023-05-15T16:24:40.886Z,14.43
2023-05-15T16:27:12.713Z,14.56
2023-05-15T16:29:44.480Z,14.62
2023-05-15T16:32:18.596Z,14.63
2023-05-15T16:34:55.143Z,14.43
2023-05-15T16:37:27.051Z,14.52
2023-05-15T16:39:58.730Z,14.24
2023-05-15T16:42:36.136Z,14.25
2023-05-15T16:45:08.748Z,14.16
2023-05-15T16:47:41.238Z,14.13
2023-05-15T16:50:18.572Z,13.97
2023-05-15T16:52:50.319Z,13.82
2023-05-15T16:55:22.318Z,13.83
2023-05-15T16:57:53.934Z,13.73
2023-05-15T17:00:25.682Z,13.70
2023-05-15T17:02:57.724Z,13.69
2023-05-15T17:05:29.467Z,13.70
2023-05-15T17:08:01.220Z,13.78
2023-05-15T17:10:32.781Z,13.68
2023-05-15T17:13:04.672Z,13.54
2023-05-15T17:15:36.533Z,13.53
2023-05-15T17:18:08.355Z,13.62
2023-05-15T17:20:40.065Z,13.55
2023-05-15T17:23:11.790Z,13.56
2023-05-15T17:25:43.445Z,13.41
2023-05-15T17:28:15.593Z,13.37
2023-05-15T17:30:47.858Z,13.52
2023-05-15T17:33:19.259Z,13.49
2023-05-15T17:35:50.906Z,13.39
2023-05-15T17:38:23.249Z,13.43
2023-05-15T17:40:55.517Z,13.43
2023-05-15T17:43:26.822Z,13.35
2023-05-15T17:46:00.307Z,13.44
2023-05-15T17:48:32.886Z,13.37
2023-05-15T17:51:04.411Z,13.44
2023-05-15T17:53:37.082Z,13.29
2023-05-15T17:56:08.707Z,13.29
2023-05-15T17:58:40.268Z,13.27
2023-05-15T18:01:12.207Z,13.16
2023-05-15T18:03:44.054Z,13.17
2023-05-15T18:06:15.688Z,13.15
2023-05-15T18:08:47.884Z,13.07
2023-05-15T18:11:22.265Z,13.00
2023-05-15T18:13:54.475Z,12.94
2023-05-15T18:16:26.144Z,12.88
2023-05-15T18:18:59.443Z,12.82
2023-05-15T18:21:31.127Z,12.78
2023-05-15T18:24:02.711Z,12.74
2023-05-15T18:26:34.356Z,12.71
2023-05-15T18:29:05.946Z,12.68
2023-05-15T18:31:37.958Z,12.64
2023-05-15T18:34:09.530Z,12.59
2023-05-15T18:36:41.028Z,12.54
2023-05-15T18:39:12.642Z,12.46
2023-05-15T18:41:44.409Z,12.40
2023-05-15T18:44:16.190Z,12.34
2023-05-15T18:46:47.863Z,12.19
2023-05-15T18:49:19.459Z,12.14
2023-05-15T18:51:50.942Z,12.12
2023-05-15T18:54:22.513Z,12.07
2023-05-15T18:56:54.276Z,12.05
2023-05-15T18:59:27.149Z,12.03
2023-05-15T19:01:58.824Z,11.98
2023-05-15T19:04:30.478Z,11.96
2023-05-15T19:07:03.311Z,11.96
2023-05-15T19:09:35.741Z,11.92
2023-05-15T19:12:07.569Z,11.88
2023-05-15T19:14:39.182Z,11.86
2023-05-15T19:17:10.816Z,11.83
2023-05-15T19:19:43.134Z,11.81
2023-05-15T19:22:18.671Z,11.79
2023-05-15T19:24:50.802Z,11.79
2023-05-15T19:27:22.352Z,11.70
2023-05-15T19:29:55.013Z,11.64
2023-05-15T19:32:26.655Z,11.59
2023-05-15T19:34:59.082Z,11.53
2023-05-15T19:37:30.604Z,11.50
2023-05-15T19:40:02.312Z,11.47
2023-05-15T19:42:33.867Z,11.39
2023-05-15T19:45:07.393Z,11.29
2023-05-15T19:47:39.013Z,11.24
2023-05-15T19:50:10.700Z,11.20
2023-05-15T19:52:45.215Z,11.09
2023-05-15T19:55:17.442Z,11.06
2023-05-15T19:57:49.364Z,11.02
2023-05-15T20:00:21.432Z,10.89
2023-05-15T20:02:53.180Z,10.78
2023-05-15T20:05:24.955Z,10.74
2023-05-15T20:07:56.626Z,10.68
2023-05-15T20:10:29.022Z,10.61
2023-05-15T20:13:01.097Z,10.58
2023-05-15T20:15:35.914Z,10.61
2023-05-15T20:18:07.695Z,10.60
2023-05-15T20:20:40.662Z,10.57
2023-05-15T20:23:12.609Z,10.58
2023-05-15T20:25:44.183Z,10.63
2023-05-15T20:28:17.964Z,10.65
2023-05-15T20:30:49.506Z,10.68
2023-05-15T20:33:21.147Z,10.69
2023-05-15T20:35:54.018Z,10.59
2023-05-15T20:38:26.872Z,10.54
2023-05-15T20:41:00.719Z,10.48
2023-05-15T20:43:32.326Z,10.40
2023-05-15T20:46:03.988Z,10.48
2023-05-15T20:48:36.281Z,10.52
2023-05-15T20:51:07.725Z,10.56
2023-05-15T20:53:40.261Z,10.58
2023-05-15T20:56:12.784Z,10.63
2023-05-15T20:58:44.523Z,10.64
2023-05-15T21:01:16.232Z,10.55
2023-05-15T21:03:48.042Z,10.56
2023-05-15T21:06:19.914Z,10.50
2023-05-15T21:08:51.830Z,10.43
2023-05-15T21:11:23.810Z,10.41
2023-05-15T21:13:56.772Z,10.33
2023-05-15T21:16:29.206Z,10.33
2023-05-15T21:19:01.329Z,10.27
2023-05-15T21:21:32.970Z,10.16
2023-05-15T21:24:06.100Z,10.16
2023-05-15T21:26:38.719Z,10.15
2023-05-15T21:29:10.229Z,10.17
2023-05-15T21:31:42.162Z,10.17
2023-05-15T21:34:13.736Z,10.24
2023-05-15T21:36:45.290Z,10.25
2023-05-15T21:39:16.964Z,10.29
2023-05-15T21:41:49.632Z,10.34
2023-05-15T21:44:21.409Z,10.35
2023-05-15T21:46:53.269Z,10.30
2023-05-15T21:49:27.614Z,10.25
2023-05-15T21:52:00.588Z,10.20
2023-05-15T21:54:32.115Z,10.17
2023-05-15T21:57:03.800Z,10.17
2023-05-15T21:59:35.463Z,10.08
2023-05-15T22:02:07.437Z,10.11
2023-05-15T22:04:39.548Z,10.12
2023-05-15T22:07:11.268Z,10.14
2023-05-15T22:09:44.764Z,10.12
2023-05-15T22:12:16.319Z,10.21
2023-05-15T22:14:58.376Z,10.21
2023-05-15T22:17:31.212Z,10.18
2023-05-15T22:20:13.824Z,10.15
2023-05-15T22:22:45.409Z,10.12
2023-05-15T22:25:16.933Z,10.06
2023-05-15T22:27:48.744Z,10.11
2023-05-15T22:30:20.919Z,10.13
2023-05-15T22:32:52.365Z,10.13
2023-05-15T22:35:24.031Z,10.13
2023-05-15T22:37:55.923Z,10.17
2023-05-15T22:40:27.673Z,10.23
2023-05-15T22:42:59.336Z,10.26
2023-05-15T22:45:31.326Z,10.27
2023-05-15T22:48:03.708Z,10.24
2023-05-15T22:50:36.273Z,10.24
2023-05-15T22:53:07.781Z,10.23
2023-05-15T22:55:39.362Z,10.21
2023-05-15T22:58:11.013Z,10.20
2023-05-15T23:00:42.575Z,10.22
2023-05-15T23:03:15.887Z,10.26
2023-05-15T23:05:47.610Z,10.25
2023-05-15T23:08:20.486Z,10.27
2023-05-15T23:10:55.492Z,10.27
2023-05-15T23:13:27.052Z,10.27
2023-05-15T23:15:58.753Z,10.27
2023-05-15T23:18:30.334Z,10.25
2023-05-15T23:21:02.481Z,10.21
2023-05-15T23:23:33.963Z,10.26
2023-05-15T23:26:05.468Z,10.30
2023-05-15T23:28:37.252Z,10.31
2023-05-15T23:31:09.932Z,10.36
2023-05-15T23:33:41.722Z,10.33
2023-05-15T23:36:13.225Z,10.29
2023-05-15T23:38:45.517Z,10.33
2023-05-15T23:41:16.875Z,10.32
2023-05-15T23:43:50.461Z,10.32
2023-05-15T23:46:22.054Z,10.33
2023-05-15T23:48:53.673Z,10.34
2023-05-15T23:51:25.530Z,10.33
2023-05-15T23:53:57.047Z,10.29
2023-05-15T23:56:28.609Z,10.28
2023-05-15T23:59:00.775Z,10.25
